sensor_id;sensor_type;location;lat;lon;timestamp;pressure;altitude;pressure_sealevel;temperature;humidity
51496;BME280;37572;52.094;4.870;2023-12-20T00:01:24;101602.91;;;10.83;62.47
51496;BME280;37572;52.094;4.870;2023-12-20T00:03:50;101603.19;;;10.80;62.34
51496;BME280;37572;52.094;4.870;2023-12-20T00:06:15;101607.97;;;10.76;62.58
51496;BME280;37572;52.094;4.870;2023-12-20T00:08:40;101610.75;;;10.74;62.42
51496;BME280;37572;52.094;4.870;2023-12-20T00:11:06;101611.03;;;10.71;62.47
51496;BME280;37572;52.094;4.870;2023-12-20T00:13:31;101605.28;;;10.66;62.27
51496;BME280;37572;52.094;4.870;2023-12-20T00:15:56;101602.88;;;10.63;62.66
51496;BME280;37572;52.094;4.870;2023-12-20T00:18:23;101596.16;;;10.59;62.51
51496;BME280;37572;52.094;4.870;2023-12-20T00:20:48;101596.28;;;10.58;62.42
51496;BME280;37572;52.094;4.870;2023-12-20T00:23:13;101594.47;;;10.58;62.46
51496;BME280;37572;52.094;4.870;2023-12-20T00:25:39;101597.13;;;10.58;62.38
51496;BME280;37572;52.094;4.870;2023-12-20T00:28:04;101597.81;;;10.60;62.43
51496;BME280;37572;52.094;4.870;2023-12-20T00:30:29;101606.50;;;10.62;62.51
51496;BME280;37572;52.094;4.870;2023-12-20T00:32:55;101605.41;;;10.65;62.46
51496;BME280;37572;52.094;4.870;2023-12-20T00:35:21;101596.44;;;10.66;62.28
51496;BME280;37572;52.094;4.870;2023-12-20T00:37:46;101605.28;;;10.66;62.20
51496;BME280;37572;52.094;4.870;2023-12-20T00:40:11;101609.59;;;10.67;62.29
51496;BME280;37572;52.094;4.870;2023-12-20T00:42:37;101600.63;;;10.68;62.22
51496;BME280;37572;52.094;4.870;2023-12-20T00:45:02;101597.84;;;10.70;62.27
51496;BME280;37572;52.094;4.870;2023-12-20T00:47:29;101601.19;;;10.72;62.29
51496;BME280;37572;52.094;4.870;2023-12-20T00:49:55;101594.78;;;10.74;62.16
51496;BME280;37572;52.094;4.870;2023-12-20T00:52:20;101595.47;;;10.77;61.90
51496;BME280;37572;52.094;4.870;2023-12-20T00:54:47;101595.34;;;10.78;61.74
51496;BME280;37572;52.094;4.870;2023-12-20T00:57:13;101590.13;;;10.77;62.00
51496;BME280;37572;52.094;4.870;2023-12-20T00:59:38;101592.81;;;10.77;61.92
51496;BME280;37572;52.094;4.870;2023-12-20T01:02:04;101599.09;;;10.76;61.98
51496;BME280;37572;52.094;4.870;2023-12-20T01:04:29;101598.41;;;10.73;61.80
51496;BME280;37572;52.094;4.870;2023-12-20T01:06:54;101586.09;;;10.72;61.71
51496;BME280;37572;52.094;4.870;2023-12-20T01:09:20;101599.53;;;10.71;61.81
51496;BME280;37572;52.094;4.870;2023-12-20T01:11:48;101597.00;;;10.69;61.76
51496;BME280;37572;52.094;4.870;2023-12-20T01:14:13;101598.94;;;10.67;61.70
51496;BME280;37572;52.094;4.870;2023-12-20T01:16:39;101601.78;;;10.66;61.72
51496;BME280;37572;52.094;4.870;2023-12-20T01:19:04;101598.38;;;10.64;61.72
51496;BME280;37572;52.094;4.870;2023-12-20T01:21:29;101606.09;;;10.67;61.78
51496;BME280;37572;52.094;4.870;2023-12-20T01:23:55;101607.66;;;10.69;61.81
51496;BME280;37572;52.094;4.870;2023-12-20T01:26:20;101603.88;;;10.72;61.86
51496;BME280;37572;52.094;4.870;2023-12-20T01:28:45;101607.09;;;10.76;61.76
51496;BME280;37572;52.094;4.870;2023-12-20T01:31:11;101601.50;;;10.79;61.84
51496;BME280;37572;52.094;4.870;2023-12-20T01:33:36;101600.38;;;10.81;61.68
51496;BME280;37572;52.094;4.870;2023-12-20T01:36:01;101595.63;;;10.85;61.58
51496;BME280;37572;52.094;4.870;2023-12-20T01:38:27;101592.81;;;10.86;61.50
51496;BME280;37572;52.094;4.870;2023-12-20T01:40:52;101590.03;;;10.88;61.61
51496;BME280;37572;52.094;4.870;2023-12-20T01:43:17;101587.22;;;10.89;61.53
51496;BME280;37572;52.094;4.870;2023-12-20T01:45:43;101586.22;;;10.90;61.43
51496;BME280;37572;52.094;4.870;2023-12-20T01:48:09;101590.44;;;10.93;61.41
51496;BME280;37572;52.094;4.870;2023-12-20T01:50:36;101585.09;;;10.93;61.54
51496;BME280;37572;52.094;4.870;2023-12-20T01:53:03;101589.31;;;10.96;61.41
51496;BME280;37572;52.094;4.870;2023-12-20T01:55:31;101590.03;;;10.98;61.49
51496;BME280;37572;52.094;4.870;2023-12-20T01:57:58;101594.22;;;11.00;61.20
51496;BME280;37572;52.094;4.870;2023-12-20T02:00:25;101593.09;;;11.03;61.47
51496;BME280;37572;52.094;4.870;2023-12-20T02:02:53;101597.31;;;11.05;61.46
51496;BME280;37572;52.094;4.870;2023-12-20T02:05:21;101599.69;;;11.08;61.30
51496;BME280;37572;52.094;4.870;2023-12-20T02:07:46;101585.25;;;11.11;61.19
51496;BME280;37572;52.094;4.870;2023-12-20T02:10:11;101579.66;;;11.14;61.30
51496;BME280;37572;52.094;4.870;2023-12-20T02:12:38;101580.34;;;11.16;61.27
51496;BME280;37572;52.094;4.870;2023-12-20T02:15:04;101577.53;;;11.18;60.97
51496;BME280;37572;52.094;4.870;2023-12-20T02:17:31;101577.25;;;11.21;61.09
51496;BME280;37572;52.094;4.870;2023-12-20T02:19:56;101574.59;;;11.21;61.02
51496;BME280;37572;52.094;4.870;2023-12-20T02:22:22;101578.09;;;11.21;61.08
51496;BME280;37572;52.094;4.870;2023-12-20T02:24:47;101574.59;;;11.21;60.95
51496;BME280;37572;52.094;4.870;2023-12-20T02:27:12;101570.22;;;11.20;60.83
51496;BME280;37572;52.094;4.870;2023-12-20T02:29:38;101574.59;;;11.21;60.81
51496;BME280;37572;52.094;4.870;2023-12-20T02:32:03;101575.28;;;11.23;60.72
51496;BME280;37572;52.094;4.870;2023-12-20T02:34:29;101572.47;;;11.24;60.91
51496;BME280;37572;52.094;4.870;2023-12-20T02:36:54;101574.88;;;11.27;60.88
51496;BME280;37572;52.094;4.870;2023-12-20T02:39:21;101579.06;;;11.30;60.77
51496;BME280;37572;52.094;4.870;2023-12-20T02:41:46;101574.28;;;11.34;61.21
51496;BME280;37572;52.094;4.870;2023-12-20T02:44:12;101575.97;;;11.35;60.80
51496;BME280;37572;52.094;4.870;2023-12-20T02:46:37;101573.03;;;11.38;60.62
51496;BME280;37572;52.094;4.870;2023-12-20T02:49:02;101570.34;;;11.38;60.66
51496;BME280;37572;52.094;4.870;2023-12-20T02:51:28;101572.88;;;11.39;60.66
51496;BME280;37572;52.094;4.870;2023-12-20T02:53:53;101566.53;;;11.40;60.52
51496;BME280;37572;52.094;4.870;2023-12-20T02:56:18;101562.06;;;11.41;60.52
51496;BME280;37572;52.094;4.870;2023-12-20T02:58:44;101559.41;;;11.41;60.33
51496;BME280;37572;52.094;4.870;2023-12-20T03:01:09;101558.53;;;11.40;60.33
51496;BME280;37572;52.094;4.870;2023-12-20T03:03:34;101555.03;;;11.40;60.36
51496;BME280;37572;52.094;4.870;2023-12-20T03:06:00;101558.53;;;11.40;60.01
51496;BME280;37572;52.094;4.870;2023-12-20T03:08:25;101552.53;;;11.38;59.97
51496;BME280;37572;52.094;4.870;2023-12-20T03:10:50;101543.53;;;11.39;59.98
51496;BME280;37572;52.094;4.870;2023-12-20T03:13:15;101545.34;;;11.39;60.25
51496;BME280;37572;52.094;4.870;2023-12-20T03:15:41;101543.41;;;11.41;59.93
51496;BME280;37572;52.094;4.870;2023-12-20T03:18:06;101549.56;;;11.41;60.01
51496;BME280;37572;52.094;4.870;2023-12-20T03:20:31;101553.06;;;11.42;59.93
51496;BME280;37572;52.094;4.870;2023-12-20T03:23:00;101560.94;;;11.43;59.88
51496;BME280;37572;52.094;4.870;2023-12-20T03:25:25;101553.63;;;11.45;59.88
51496;BME280;37572;52.094;4.870;2023-12-20T03:27:51;101556.28;;;11.45;60.00
51496;BME280;37572;52.094;4.870;2023-12-20T03:30:16;101539.31;;;11.46;59.70
51496;BME280;37572;52.094;4.870;2023-12-20T03:32:41;101550.94;;;11.45;59.67
51496;BME280;37572;52.094;4.870;2023-12-20T03:35:06;101549.28;;;11.44;59.57
51496;BME280;37572;52.094;4.870;2023-12-20T03:37:32;101548.75;;;11.41;59.40
51496;BME280;37572;52.094;4.870;2023-12-20T03:39:57;101557.16;;;11.36;59.34
51496;BME280;37572;52.094;4.870;2023-12-20T03:42:22;101554.63;;;11.35;59.40
51496;BME280;37572;52.094;4.870;2023-12-20T03:44:48;101553.94;;;11.33;59.47
51496;BME280;37572;52.094;4.870;2023-12-20T03:47:13;101554.09;;;11.31;59.27
51496;BME280;37572;52.094;4.870;2023-12-20T03:49:38;101552.38;;;11.30;59.21
51496;BME280;37572;52.094;4.870;2023-12-20T03:52:07;101561.22;;;11.30;59.40
51496;BME280;37572;52.094;4.870;2023-12-20T03:54:33;101561.09;;;11.32;59.25
51496;BME280;37572;52.094;4.870;2023-12-20T03:56:58;101552.25;;;11.32;59.46
51496;BME280;37572;52.094;4.870;2023-12-20T03:59:23;101543.13;;;11.34;59.42
51496;BME280;37572;52.094;4.870;2023-12-20T04:01:49;101555.31;;;11.37;59.48
51496;BME280;37572;52.094;4.870;2023-12-20T04:04:14;101551.69;;;11.38;59.06
51496;BME280;37572;52.094;4.870;2023-12-20T04:06:39;101554.22;;;11.39;59.15
51496;BME280;37572;52.094;4.870;2023-12-20T04:09:05;101546.22;;;11.39;59.47
51496;BME280;37572;52.094;4.870;2023-12-20T04:11:30;101554.06;;;11.41;58.93
51496;BME280;37572;52.094;4.870;2023-12-20T04:13:55;101538.91;;;11.41;59.06
51496;BME280;37572;52.094;4.870;2023-12-20T04:16:21;101545.94;;;11.42;58.94
51496;BME280;37572;52.094;4.870;2023-12-20T04:18:46;101538.63;;;11.44;59.10
51496;BME280;37572;52.094;4.870;2023-12-20T04:21:11;101540.28;;;11.45;59.04
51496;BME280;37572;52.094;4.870;2023-12-20T04:23:37;101538.47;;;11.46;59.25
51496;BME280;37572;52.094;4.870;2023-12-20T04:26:02;101533.97;;;11.46;58.93
51496;BME280;37572;52.094;4.870;2023-12-20T04:28:27;101533.97;;;11.46;59.02
51496;BME280;37572;52.094;4.870;2023-12-20T04:30:55;101520.63;;;11.46;59.04
51496;BME280;37572;52.094;4.870;2023-12-20T04:33:20;101531.44;;;11.45;59.10
51496;BME280;37572;52.094;4.870;2023-12-20T04:35:46;101532.59;;;11.42;59.14
51496;BME280;37572;52.094;4.870;2023-12-20T04:38:11;101533.72;;;11.40;58.95
51496;BME280;37572;52.094;4.870;2023-12-20T04:40:37;101525.16;;;11.36;58.87
51496;BME280;37572;52.094;4.870;2023-12-20T04:43:02;101528.25;;;11.32;58.95
51496;BME280;37572;52.094;4.870;2023-12-20T04:45:28;101523.34;;;11.27;58.83
51496;BME280;37572;52.094;4.870;2023-12-20T04:47:53;101518.59;;;11.21;58.84
51496;BME280;37572;52.094;4.870;2023-12-20T04:50:18;101525.19;;;11.17;59.02
51496;BME280;37572;52.094;4.870;2023-12-20T04:52:45;101516.78;;;11.11;58.91
51496;BME280;37572;52.094;4.870;2023-12-20T04:55:10;101510.91;;;11.08;58.75
51496;BME280;37572;52.094;4.870;2023-12-20T04:57:35;101511.19;;;11.05;58.75
51496;BME280;37572;52.094;4.870;2023-12-20T05:00:01;101501.63;;;11.02;58.96
51496;BME280;37572;52.094;4.870;2023-12-20T05:02:26;101509.63;;;11.02;59.14
51496;BME280;37572;52.094;4.870;2023-12-20T05:04:52;101511.31;;;11.03;59.14
51496;BME280;37572;52.094;4.870;2023-12-20T05:07:17;101511.88;;;11.07;59.22
51496;BME280;37572;52.094;4.870;2023-12-20T05:09:42;101519.44;;;11.11;59.39
51496;BME280;37572;52.094;4.870;2023-12-20T05:12:08;101520.81;;;11.16;59.41
51496;BME280;37572;52.094;4.870;2023-12-20T05:14:33;101532.91;;;11.20;59.31
51496;BME280;37572;52.094;4.870;2023-12-20T05:16:58;101527.44;;;11.21;59.21
51496;BME280;37572;52.094;4.870;2023-12-20T05:19:24;101526.28;;;11.24;59.06
51496;BME280;37572;52.094;4.870;2023-12-20T05:21:49;101535.00;;;11.26;59.22
51496;BME280;37572;52.094;4.870;2023-12-20T05:24:15;101538.38;;;11.28;59.07
51496;BME280;37572;52.094;4.870;2023-12-20T05:26:40;101531.19;;;11.28;59.01
51496;BME280;37572;52.094;4.870;2023-12-20T05:29:06;101520.41;;;11.30;59.05
51496;BME280;37572;52.094;4.870;2023-12-20T05:31:31;101528.25;;;11.32;59.10
51496;BME280;37572;52.094;4.870;2023-12-20T05:33:57;101520.13;;;11.33;59.09
51496;BME280;37572;52.094;4.870;2023-12-20T05:36:22;101529.50;;;11.37;59.13
51496;BME280;37572;52.094;4.870;2023-12-20T05:38:48;101521.22;;;11.40;59.04
51496;BME280;37572;52.094;4.870;2023-12-20T05:41:13;101518.25;;;11.43;59.05
51496;BME280;37572;52.094;4.870;2023-12-20T05:43:39;101517.97;;;11.46;58.88
51496;BME280;37572;52.094;4.870;2023-12-20T05:46:04;101511.34;;;11.51;58.99
51496;BME280;37572;52.094;4.870;2023-12-20T05:48:29;101508.41;;;11.54;59.01
51496;BME280;37572;52.094;4.870;2023-12-20T05:50:55;101511.59;;;11.57;58.97
51496;BME280;37572;52.094;4.870;2023-12-20T05:53:20;101518.63;;;11.58;58.83
51496;BME280;37572;52.094;4.870;2023-12-20T05:55:45;101511.19;;;11.62;58.73
51496;BME280;37572;52.094;4.870;2023-12-20T05:58:11;101510.06;;;11.64;58.54
51496;BME280;37572;52.094;4.870;2023-12-20T06:00:36;101515.09;;;11.68;58.57
51496;BME280;37572;52.094;4.870;2023-12-20T06:03:01;101513.13;;;11.70;58.57
51496;BME280;37572;52.094;4.870;2023-12-20T06:05:27;101511.97;;;11.72;58.51
51496;BME280;37572;52.094;4.870;2023-12-20T06:07:52;101515.50;;;11.73;58.27
51496;BME280;37572;52.094;4.870;2023-12-20T06:10:18;101513.53;;;11.75;58.26
51496;BME280;37572;52.094;4.870;2023-12-20T06:12:43;101528.38;;;11.77;58.27
51496;BME280;37572;52.094;4.870;2023-12-20T06:15:08;101520.22;;;11.79;58.25
51496;BME280;37572;52.094;4.870;2023-12-20T06:17:34;101519.94;;;11.82;58.30
51496;BME280;37572;52.094;4.870;2023-12-20T06:20:00;101515.47;;;11.82;58.21
51496;BME280;37572;52.094;4.870;2023-12-20T06:22:25;101513.50;;;11.84;58.30
51496;BME280;37572;52.094;4.870;2023-12-20T06:24:51;101510.81;;;11.84;58.18
51496;BME280;37572;52.094;4.870;2023-12-20T06:27:16;101507.00;;;11.87;58.36
51496;BME280;37572;52.094;4.870;2023-12-20T06:29:42;101516.84;;;11.87;57.89
51496;BME280;37572;52.094;4.870;2023-12-20T06:32:09;101501.66;;;11.87;57.99
51496;BME280;37572;52.094;4.870;2023-12-20T06:34:35;101508.69;;;11.88;57.77
51496;BME280;37572;52.094;4.870;2023-12-20T06:37:00;101504.19;;;11.89;58.10
51496;BME280;37572;52.094;4.870;2023-12-20T06:39:25;101499.72;;;11.89;57.82
51496;BME280;37572;52.094;4.870;2023-12-20T06:41:51;101491.56;;;11.91;57.65
51496;BME280;37572;52.094;4.870;2023-12-20T06:44:16;101494.22;;;11.91;57.88
51496;BME280;37572;52.094;4.870;2023-12-20T06:46:41;101491.25;;;11.94;57.83
51496;BME280;37572;52.094;4.870;2023-12-20T06:49:07;101493.94;;;11.94;57.57
51496;BME280;37572;52.094;4.870;2023-12-20T06:51:32;101509.81;;;11.95;57.80
51496;BME280;37572;52.094;4.870;2023-12-20T06:53:57;101499.97;;;11.96;57.78
51496;BME280;37572;52.094;4.870;2023-12-20T06:56:23;101509.50;;;11.98;57.94
51496;BME280;37572;52.094;4.870;2023-12-20T06:58:48;101503.19;;;11.99;57.79
51496;BME280;37572;52.094;4.870;2023-12-20T07:01:14;101491.50;;;12.00;57.91
51496;BME280;37572;52.094;4.870;2023-12-20T07:03:40;101508.38;;;12.01;57.75
51496;BME280;37572;52.094;4.870;2023-12-20T07:06:06;101497.72;;;12.01;58.01
51496;BME280;37572;52.094;4.870;2023-12-20T07:08:32;101498.41;;;12.03;57.68
51496;BME280;37572;52.094;4.870;2023-12-20T07:10:57;101492.06;;;12.04;57.68
51496;BME280;37572;52.094;4.870;2023-12-20T07:13:23;101482.91;;;12.07;57.66
51496;BME280;37572;52.094;4.870;2023-12-20T07:15:48;101481.06;;;12.07;57.44
51496;BME280;37572;52.094;4.870;2023-12-20T07:18:14;101478.41;;;12.07;57.53
51496;BME280;37572;52.094;4.870;2023-12-20T07:20:39;101483.75;;;12.07;57.53
51496;BME280;37572;52.094;4.870;2023-12-20T07:23:05;101477.44;;;12.08;57.58
51496;BME280;37572;52.094;4.870;2023-12-20T07:25:30;101460.56;;;12.08;57.33
51496;BME280;37572;52.094;4.870;2023-12-20T07:27:58;101468.59;;;12.08;57.59
51496;BME280;37572;52.094;4.870;2023-12-20T07:30:23;101465.06;;;12.07;57.52
51496;BME280;37572;52.094;4.870;2023-12-20T07:32:48;101472.22;;;12.07;57.62
51496;BME280;37572;52.094;4.870;2023-12-20T07:35:15;101472.38;;;12.05;57.34
51496;BME280;37572;52.094;4.870;2023-12-20T07:37:40;101483.06;;;12.05;57.58
51496;BME280;37572;52.094;4.870;2023-12-20T07:40:08;101484.91;;;12.05;57.47
51496;BME280;37572;52.094;4.870;2023-12-20T07:42:33;101486.75;;;12.04;57.33
51496;BME280;37572;52.094;4.870;2023-12-20T07:44:58;101493.88;;;12.03;57.45
51496;BME280;37572;52.094;4.870;2023-12-20T07:47:24;101489.56;;;12.02;57.50
51496;BME280;37572;52.094;4.870;2023-12-20T07:49:51;101487.72;;;12.03;57.47
51496;BME280;37572;52.094;4.870;2023-12-20T07:52:17;101497.25;;;12.06;57.43
51496;BME280;37572;52.094;4.870;2023-12-20T07:54:43;101483.75;;;12.07;57.45
51496;BME280;37572;52.094;4.870;2023-12-20T07:57:10;101497.81;;;12.09;57.43
51496;BME280;37572;52.094;4.870;2023-12-20T07:59:36;101509.16;;;12.11;57.57
51496;BME280;37572;52.094;4.870;2023-12-20T08:02:01;101517.03;;;12.13;57.27
51496;BME280;37572;52.094;4.870;2023-12-20T08:04:27;101508.00;;;12.14;57.53
51496;BME280;37572;52.094;4.870;2023-12-20T08:06:52;101514.91;;;12.16;57.47
51496;BME280;37572;52.094;4.870;2023-12-20T08:09:18;101508.56;;;12.17;57.61
51496;BME280;37572;52.094;4.870;2023-12-20T08:11:47;101517.28;;;12.19;57.46
51496;BME280;37572;52.094;4.870;2023-12-20T08:14:12;101508.25;;;12.20;57.38
51496;BME280;37572;52.094;4.870;2023-12-20T08:16:38;101511.78;;;12.21;57.43
51496;BME280;37572;52.094;4.870;2023-12-20T08:19:03;101503.78;;;12.21;57.41
51496;BME280;37572;52.094;4.870;2023-12-20T08:21:28;101509.94;;;12.21;57.35
51496;BME280;37572;52.094;4.870;2023-12-20T08:23:54;101506.28;;;12.23;57.25
51496;BME280;37572;52.094;4.870;2023-12-20T08:26:20;101501.78;;;12.23;57.61
51496;BME280;37572;52.094;4.870;2023-12-20T08:28:46;101501.63;;;12.25;57.54
51496;BME280;37572;52.094;4.870;2023-12-20T08:31:15;101502.31;;;12.27;57.64
51496;BME280;37572;52.094;4.870;2023-12-20T08:33:45;101492.47;;;12.27;57.77
51496;BME280;37572;52.094;4.870;2023-12-20T08:36:11;101488.81;;;12.28;57.85
51496;BME280;37572;52.094;4.870;2023-12-20T08:38:36;101490.38;;;12.31;57.84
51496;BME280;37572;52.094;4.870;2023-12-20T08:41:02;101487.53;;;12.32;57.98
51496;BME280;37572;52.094;4.870;2023-12-20T08:43:30;101492.72;;;12.34;57.95
51496;BME280;37572;52.094;4.870;2023-12-20T08:45:55;101506.78;;;12.36;57.95
51496;BME280;37572;52.094;4.870;2023-12-20T08:48:20;101507.59;;;12.36;58.16
51496;BME280;37572;52.094;4.870;2023-12-20T08:50:46;101500.13;;;12.40;57.91
51496;BME280;37572;52.094;4.870;2023-12-20T08:53:15;101510.66;;;12.42;57.79
51496;BME280;37572;52.094;4.870;2023-12-20T08:55:41;101507.00;;;12.43;57.83
51496;BME280;37572;52.094;4.870;2023-12-20T08:58:07;101505.03;;;12.45;57.99
51496;BME280;37572;52.094;4.870;2023-12-20T09:00:33;101501.38;;;12.46;57.93
51496;BME280;37572;52.094;4.870;2023-12-20T09:02:59;101490.50;;;12.47;57.91
51496;BME280;37572;52.094;4.870;2023-12-20T09:05:24;101492.88;;;12.50;58.01
51496;BME280;37572;52.094;4.870;2023-12-20T09:07:50;101492.56;;;12.53;57.86
51496;BME280;37572;52.094;4.870;2023-12-20T09:10:15;101498.75;;;12.54;57.77
51496;BME280;37572;52.094;4.870;2023-12-20T09:12:40;101490.59;;;12.55;58.03
51496;BME280;37572;52.094;4.870;2023-12-20T09:15:07;101485.94;;;12.57;58.11
51496;BME280;37572;52.094;4.870;2023-12-20T09:17:33;101491.97;;;12.59;57.79
51496;BME280;37572;52.094;4.870;2023-12-20T09:19:58;101484.63;;;12.62;57.85
51496;BME280;37572;52.094;4.870;2023-12-20T09:22:25;101491.53;;;12.64;57.48
51496;BME280;37572;52.094;4.870;2023-12-20T09:24:50;101495.03;;;12.65;57.90
51496;BME280;37572;52.094;4.870;2023-12-20T09:27:15;101493.84;;;12.67;57.81
51496;BME280;37572;52.094;4.870;2023-12-20T09:29:41;101485.69;;;12.69;57.75
51496;BME280;37572;52.094;4.870;2023-12-20T09:32:06;101489.06;;;12.71;57.54
51496;BME280;37572;52.094;4.870;2023-12-20T09:34:31;101490.72;;;12.72;57.57
51496;BME280;37572;52.094;4.870;2023-12-20T09:36:57;101494.28;;;12.72;57.49
51496;BME280;37572;52.094;4.870;2023-12-20T09:39:22;101502.13;;;12.74;57.68
51496;BME280;37572;52.094;4.870;2023-12-20T09:42:03;101494.78;;;12.76;57.51
51496;BME280;37572;52.094;4.870;2023-12-20T09:44:30;101495.47;;;12.78;57.86
51496;BME280;37572;52.094;4.870;2023-12-20T09:46:56;101485.47;;;12.80;57.67
51496;BME280;37572;52.094;4.870;2023-12-20T09:49:22;101490.50;;;12.83;57.80
51496;BME280;37572;52.094;4.870;2023-12-20T09:51:50;101499.19;;;12.85;57.56
51496;BME280;37572;52.094;4.870;2023-12-20T09:54:19;101511.44;;;12.88;57.72
51496;BME280;37572;52.094;4.870;2023-12-20T09:56:46;101517.44;;;12.90;57.66
51496;BME280;37572;52.094;4.870;2023-12-20T09:59:11;101523.47;;;12.92;57.66
51496;BME280;37572;52.094;4.870;2023-12-20T10:01:39;101526.00;;;12.93;57.67
51496;BME280;37572;52.094;4.870;2023-12-20T10:04:06;101520.50;;;12.95;57.66
51496;BME280;37572;52.094;4.870;2023-12-20T10:06:37;101523.69;;;12.99;57.60
51496;BME280;37572;52.094;4.870;2023-12-20T10:09:02;101514.69;;;13.00;57.86
51496;BME280;37572;52.094;4.870;2023-12-20T10:11:29;101518.03;;;13.02;57.68
51496;BME280;37572;52.094;4.870;2023-12-20T10:13:59;101513.38;;;13.04;57.84
51496;BME280;37572;52.094;4.870;2023-12-20T10:16:26;101512.09;;;13.08;57.81
51496;BME280;37572;52.094;4.870;2023-12-20T10:18:53;101505.56;;;13.10;57.69
51496;BME280;37572;52.094;4.870;2023-12-20T10:21:18;101504.44;;;13.13;57.47
51496;BME280;37572;52.094;4.870;2023-12-20T10:23:44;101500.78;;;13.14;57.26
51496;BME280;37572;52.094;4.870;2023-12-20T10:26:09;101500.44;;;13.17;57.22
51496;BME280;37572;52.094;4.870;2023-12-20T10:28:35;101494.78;;;13.20;57.48
51496;BME280;37572;52.094;4.870;2023-12-20T10:31:00;101499.81;;;13.23;57.31
51496;BME280;37572;52.094;4.870;2023-12-20T10:33:30;101492.47;;;13.25;57.24
51496;BME280;37572;52.094;4.870;2023-12-20T10:35:57;101495.00;;;13.27;57.15
51496;BME280;37572;52.094;4.870;2023-12-20T10:38:22;101496.69;;;13.28;57.16
51496;BME280;37572;52.094;4.870;2023-12-20T10:40:49;101498.19;;;13.30;57.04
51496;BME280;37572;52.094;4.870;2023-12-20T10:43:17;101490.16;;;13.30;57.08
51496;BME280;37572;52.094;4.870;2023-12-20T10:45:42;101491.84;;;13.31;57.09
51496;BME280;37572;52.094;4.870;2023-12-20T10:48:11;101490.03;;;13.32;57.06
51496;BME280;37572;52.094;4.870;2023-12-20T10:50:40;101482.13;;;13.30;57.21
51496;BME280;37572;52.094;4.870;2023-12-20T10:53:06;101478.47;;;13.31;57.05
51496;BME280;37572;52.094;4.870;2023-12-20T10:55:32;101475.69;;;13.33;56.93
51496;BME280;37572;52.094;4.870;2023-12-20T10:58:07;101476.50;;;13.33;57.30
51496;BME280;37572;52.094;4.870;2023-12-20T11:00:36;101475.38;;;13.36;57.08
51496;BME280;37572;52.094;4.870;2023-12-20T11:03:05;101463.50;;;13.39;57.42
51496;BME280;37572;52.094;4.870;2023-12-20T11:05:52;101459.22;;;13.46;57.21
51496;BME280;37572;52.094;4.870;2023-12-20T11:08:38;101443.50;;;13.51;57.34
51496;BME280;37572;52.094;4.870;2023-12-20T11:11:14;101459.25;;;13.54;57.18
51496;BME280;37572;52.094;4.870;2023-12-20T11:13:49;101459.91;;;13.56;57.26
51496;BME280;37572;52.094;4.870;2023-12-20T11:16:18;101437.03;;;13.62;57.39
51496;BME280;37572;52.094;4.870;2023-12-20T11:18:45;101444.72;;;13.65;57.01
51496;BME280;37572;52.094;4.870;2023-12-20T11:21:10;101460.63;;;13.66;56.93
51496;BME280;37572;52.094;4.870;2023-12-20T11:23:36;101459.81;;;13.66;56.85
51496;BME280;37572;52.094;4.870;2023-12-20T11:26:02;101455.28;;;13.66;56.71
51496;BME280;37572;52.094;4.870;2023-12-20T11:28:28;101465.16;;;13.66;56.61
51496;BME280;37572;52.094;4.870;2023-12-20T11:30:58;101464.84;;;13.69;56.90
51496;BME280;37572;52.094;4.870;2023-12-20T11:33:30;101467.16;;;13.72;56.74
51496;BME280;37572;52.094;4.870;2023-12-20T11:35:56;101455.63;;;13.72;56.89
51496;BME280;37572;52.094;4.870;2023-12-20T11:38:21;101455.31;;;13.75;56.83
51496;BME280;37572;52.094;4.870;2023-12-20T11:40:51;101441.94;;;13.75;56.47
51496;BME280;37572;52.094;4.870;2023-12-20T11:43:31;101435.44;;;13.77;56.80
51496;BME280;37572;52.094;4.870;2023-12-20T11:46:03;101436.09;;;13.79;56.63
51496;BME280;37572;52.094;4.870;2023-12-20T11:48:30;101428.59;;;13.83;56.67
51496;BME280;37572;52.094;4.870;2023-12-20T11:50:56;101429.41;;;13.83;56.87
51496;BME280;37572;52.094;4.870;2023-12-20T11:53:21;101428.41;;;13.84;56.45
51496;BME280;37572;52.094;4.870;2023-12-20T11:55:48;101423.88;;;13.85;56.51
51496;BME280;37572;52.094;4.870;2023-12-20T11:58:14;101433.63;;;13.86;56.41
51496;BME280;37572;52.094;4.870;2023-12-20T12:00:41;101416.53;;;13.87;56.50
51496;BME280;37572;52.094;4.870;2023-12-20T12:03:06;101413.84;;;13.87;56.46
51496;BME280;37572;52.094;4.870;2023-12-20T12:05:32;101414.72;;;13.87;56.59
51496;BME280;37572;52.094;4.870;2023-12-20T12:07:58;101418.06;;;13.90;56.48
51496;BME280;37572;52.094;4.870;2023-12-20T12:10:23;101426.91;;;13.90;56.35
51496;BME280;37572;52.094;4.870;2023-12-20T12:12:49;101419.91;;;13.89;56.25
51496;BME280;37572;52.094;4.870;2023-12-20T12:15:15;101420.72;;;13.90;56.48
51496;BME280;37572;52.094;4.870;2023-12-20T12:17:40;101417.06;;;13.91;56.47
51496;BME280;37572;52.094;4.870;2023-12-20T12:20:06;101420.56;;;13.91;56.39
51496;BME280;37572;52.094;4.870;2023-12-20T12:22:32;101405.19;;;13.93;56.52
51496;BME280;37572;52.094;4.870;2023-12-20T12:25:08;101417.25;;;13.97;56.53
51496;BME280;37572;52.094;4.870;2023-12-20T12:27:34;101405.53;;;13.98;56.57
51496;BME280;37572;52.094;4.870;2023-12-20T12:30:00;101401.19;;;13.97;56.72
51496;BME280;37572;52.094;4.870;2023-12-20T12:32:27;101408.19;;;13.98;56.43
51496;BME280;37572;52.094;4.870;2023-12-20T12:34:52;101397.50;;;13.98;56.33
51496;BME280;37572;52.094;4.870;2023-12-20T12:37:18;101402.00;;;13.98;56.12
51496;BME280;37572;52.094;4.870;2023-12-20T12:39:43;101401.19;;;13.97;56.28
51496;BME280;37572;52.094;4.870;2023-12-20T12:42:08;101390.81;;;13.94;56.30
51496;BME280;37572;52.094;4.870;2023-12-20T12:44:34;101382.59;;;13.96;56.17